sensor_id;sensor_type;location;lat;lon;timestamp;pressure;altitude;pressure_sealevel;temperature;humidity
32298;BME280;18782;48.984;8.548;2023-06-22T00:00:25;99870.53;;;22.09;92.75
32298;BME280;18782;48.984;8.548;2023-06-22T00:02:53;99867.06;;;22.07;92.79
32298;BME280;18782;48.984;8.548;2023-06-22T00:05:23;99868.88;;;22.05;92.65
32298;BME280;18782;48.984;8.548;2023-06-22T00:07:50;99881.00;;;22.09;92.62
32298;BME280;18782;48.984;8.548;2023-06-22T00:10:18;99887.13;;;22.10;92.58
32298;BME280;18782;48.984;8.548;2023-06-22T00:12:46;99882.66;;;22.15;92.29
32298;BME280;18782;48.984;8.548;2023-06-22T00:15:13;99882.47;;;22.23;91.53
32298;BME280;18782;48.984;8.548;2023-06-22T00:17:41;99877.31;;;22.20;91.63
32298;BME280;18782;48.984;8.548;2023-06-22T00:24:23;99897.28;;;22.24;92.25
32298;BME280;18782;48.984;8.548;2023-06-22T00:26:51;99919.03;;;22.29;91.97
32298;BME280;18782;48.984;8.548;2023-06-22T00:29:19;99969.69;;;22.31;92.07
32298;BME280;18782;48.984;8.548;2023-06-22T00:31:49;100058.34;;;22.13;91.95
32298;BME280;18782;48.984;8.548;2023-06-22T00:34:17;100144.22;;;21.51;94.18
32298;BME280;18782;48.984;8.548;2023-06-22T00:36:45;100182.81;;;21.40;95.23
32298;BME280;18782;48.984;8.548;2023-06-22T00:39:13;100119.91;;;21.43;96.23
32298;BME280;18782;48.984;8.548;2023-06-22T00:41:42;99965.91;;;21.62;95.51
32298;BME280;18782;48.984;8.548;2023-06-22T00:44:10;99885.28;;;21.75;95.12
32298;BME280;18782;48.984;8.548;2023-06-22T00:46:38;99874.81;;;21.75;95.33
32298;BME280;18782;48.984;8.548;2023-06-22T00:49:06;99885.25;;;21.78;94.67
32298;BME280;18782;48.984;8.548;2023-06-22T00:51:34;99874.00;;;21.71;94.83
32298;BME280;18782;48.984;8.548;2023-06-22T00:54:04;99877.63;;;21.67;96.11
32298;BME280;18782;48.984;8.548;2023-06-22T00:56:32;99887.28;;;21.63;96.31
32298;BME280;18782;48.984;8.548;2023-06-22T00:59:04;99902.28;;;21.55;96.76
32298;BME280;18782;48.984;8.548;2023-06-22T01:01:32;99905.91;;;21.50;97.46
32298;BME280;18782;48.984;8.548;2023-06-22T01:04:00;99914.81;;;21.43;98.19
32298;BME280;18782;48.984;8.548;2023-06-22T01:06:35;99923.59;;;21.39;99.57
32298;BME280;18782;48.984;8.548;2023-06-22T01:09:08;99936.56;;;21.45;98.65
32298;BME280;18782;48.984;8.548;2023-06-22T01:11:45;99948.66;;;21.50;98.28
32298;BME280;18782;48.984;8.548;2023-06-22T01:14:20;99949.47;;;21.54;98.52
32298;BME280;18782;48.984;8.548;2023-06-22T01:16:50;99939.81;;;21.57;97.85
32298;BME280;18782;48.984;8.548;2023-06-22T01:19:29;99935.44;;;21.58;97.73
32298;BME280;18782;48.984;8.548;2023-06-22T01:22:03;99931.88;;;21.62;97.41
32298;BME280;18782;48.984;8.548;2023-06-22T01:24:41;99924.91;;;21.59;97.46
32298;BME280;18782;48.984;8.548;2023-06-22T01:27:20;99933.53;;;21.65;96.41
32298;BME280;18782;48.984;8.548;2023-06-22T01:29:56;99934.41;;;21.67;96.44
32298;BME280;18782;48.984;8.548;2023-06-22T01:32:27;99937.28;;;21.53;95.85
32298;BME280;18782;48.984;8.548;2023-06-22T01:34:57;99932.31;;;21.41;97.36
32298;BME280;18782;48.984;8.548;2023-06-22T01:37:26;99934.03;;;21.40;97.79
32298;BME280;18782;48.984;8.548;2023-06-22T01:40:02;99943.66;;;21.41;98.26
32298;BME280;18782;48.984;8.548;2023-06-22T01:42:31;99946.13;;;21.47;97.88
32298;BME280;18782;48.984;8.548;2023-06-22T01:45:01;99948.75;;;21.47;97.25
32298;BME280;18782;48.984;8.548;2023-06-22T01:47:29;99945.41;;;21.39;98.39
32298;BME280;18782;48.984;8.548;2023-06-22T01:49:58;99941.84;;;21.43;97.23
32298;BME280;18782;48.984;8.548;2023-06-22T01:52:25;99941.84;;;21.43;97.70
32298;BME280;18782;48.984;8.548;2023-06-22T01:54:55;99941.72;;;21.49;96.79
32298;BME280;18782;48.984;8.548;2023-06-22T01:57:24;99938.31;;;21.44;96.28
32298;BME280;18782;48.984;8.548;2023-06-22T01:59:59;99934.94;;;21.39;97.31
32298;BME280;18782;48.984;8.548;2023-06-22T02:02:32;99928.78;;;21.40;96.98
32298;BME280;18782;48.984;8.548;2023-06-22T02:05:06;99927.84;;;21.44;97.03
32298;BME280;18782;48.984;8.548;2023-06-22T02:07:39;99921.78;;;21.42;96.44
32298;BME280;18782;48.984;8.548;2023-06-22T02:10:09;99928.03;;;21.35;97.46
32298;BME280;18782;48.984;8.548;2023-06-22T02:12:41;99926.31;;;21.34;98.09
32298;BME280;18782;48.984;8.548;2023-06-22T02:15:11;99922.88;;;21.32;98.44
32298;BME280;18782;48.984;8.548;2023-06-22T02:17:42;99919.44;;;21.27;96.93
32298;BME280;18782;48.984;8.548;2023-06-22T02:20:12;99909.91;;;21.23;97.12
32298;BME280;18782;48.984;8.548;2023-06-22T02:22:41;99914.22;;;21.27;97.15
32298;BME280;18782;48.984;8.548;2023-06-22T02:25:10;99914.25;;;21.24;97.00
32298;BME280;18782;48.984;8.548;2023-06-22T02:27:38;99922.03;;;21.28;96.46
32298;BME280;18782;48.984;8.548;2023-06-22T02:30:07;99924.69;;;21.27;95.80
32298;BME280;18782;48.984;8.548;2023-06-22T02:32:38;99924.66;;;21.30;95.90
32298;BME280;18782;48.984;8.548;2023-06-22T02:35:10;99916.81;;;21.27;95.85
32298;BME280;18782;48.984;8.548;2023-06-22T02:37:38;99911.59;;;21.27;95.35
32298;BME280;18782;48.984;8.548;2023-06-22T02:40:08;99905.59;;;21.22;95.62
32298;BME280;18782;48.984;8.548;2023-06-22T02:42:37;99903.91;;;21.18;96.38
32298;BME280;18782;48.984;8.548;2023-06-22T02:45:05;99913.44;;;21.22;95.83
32298;BME280;18782;48.984;8.548;2023-06-22T02:47:33;99911.72;;;21.21;95.55
32298;BME280;18782;48.984;8.548;2023-06-22T02:50:01;99904.78;;;21.18;95.23
32298;BME280;18782;48.984;8.548;2023-06-22T02:52:34;99904.00;;;21.15;95.71
32298;BME280;18782;48.984;8.548;2023-06-22T02:55:02;99897.09;;;21.10;95.54
32298;BME280;18782;48.984;8.548;2023-06-22T02:57:30;99896.28;;;21.07;95.64
32298;BME280;18782;48.984;8.548;2023-06-22T02:59:58;99895.44;;;21.05;95.93
32298;BME280;18782;48.984;8.548;2023-06-22T03:02:26;99893.81;;;20.99;95.38
32298;BME280;18782;48.984;8.548;2023-06-22T03:04:54;99897.47;;;20.91;96.22
32298;BME280;18782;48.984;8.548;2023-06-22T03:07:21;99883.50;;;20.90;96.55
32298;BME280;18782;48.984;8.548;2023-06-22T03:09:52;99885.31;;;20.88;97.48
32298;BME280;18782;48.984;8.548;2023-06-22T03:12:20;99877.59;;;20.80;96.80
32298;BME280;18782;48.984;8.548;2023-06-22T03:14:51;99876.75;;;20.78;97.62
32298;BME280;18782;48.984;8.548;2023-06-22T03:17:19;99875.88;;;20.79;97.07
32298;BME280;18782;48.984;8.548;2023-06-22T03:19:46;99871.59;;;20.74;96.63
32298;BME280;18782;48.984;8.548;2023-06-22T03:22:14;99868.09;;;20.75;96.80
32298;BME280;18782;48.984;8.548;2023-06-22T03:24:42;99870.75;;;20.73;96.87
32298;BME280;18782;48.984;8.548;2023-06-22T03:27:11;99880.34;;;20.73;96.77
32298;BME280;18782;48.984;8.548;2023-06-22T03:29:39;99875.13;;;20.73;96.98
32298;BME280;18782;48.984;8.548;2023-06-22T03:32:07;99878.59;;;20.73;96.82
32298;BME280;18782;48.984;8.548;2023-06-22T03:34:35;99884.63;;;20.77;96.50
32298;BME280;18782;48.984;8.548;2023-06-22T03:37:04;99871.53;;;20.77;95.91
32298;BME280;18782;48.984;8.548;2023-06-22T03:39:31;99875.13;;;20.73;96.63
32298;BME280;18782;48.984;8.548;2023-06-22T03:41:59;99877.69;;;20.74;96.42
32298;BME280;18782;48.984;8.548;2023-06-22T03:44:28;99876.72;;;20.80;96.01
32298;BME280;18782;48.984;8.548;2023-06-22T03:46:56;99867.16;;;20.77;95.57
32298;BME280;18782;48.984;8.548;2023-06-22T03:49:23;99873.22;;;20.81;95.64
32298;BME280;18782;48.984;8.548;2023-06-22T03:51:51;99867.97;;;20.81;95.20
32298;BME280;18782;48.984;8.548;2023-06-22T03:54:19;99873.25;;;20.79;95.47
32298;BME280;18782;48.984;8.548;2023-06-22T03:56:46;99869.91;;;20.71;96.70
32298;BME280;18782;48.984;8.548;2023-06-22T03:59:14;99871.72;;;20.68;96.24
32298;BME280;18782;48.984;8.548;2023-06-22T04:01:43;99864.66;;;20.73;96.33
32298;BME280;18782;48.984;8.548;2023-06-22T04:04:11;99860.28;;;20.73;95.61
32298;BME280;18782;48.984;8.548;2023-06-22T04:06:39;99853.25;;;20.75;96.09
32298;BME280;18782;48.984;8.548;2023-06-22T04:09:07;99860.28;;;20.73;95.90
32298;BME280;18782;48.984;8.548;2023-06-22T04:11:34;99854.00;;;20.82;95.86
32298;BME280;18782;48.984;8.548;2023-06-22T04:14:02;99852.16;;;20.87;95.14
32298;BME280;18782;48.984;8.548;2023-06-22T04:16:29;99852.84;;;20.97;96.37
32298;BME280;18782;48.984;8.548;2023-06-22T04:18:58;99836.25;;;20.99;95.48
32298;BME280;18782;48.984;8.548;2023-06-22T04:21:26;99833.72;;;20.95;95.66
32298;BME280;18782;48.984;8.548;2023-06-22T04:23:53;99835.25;;;21.03;95.99
32298;BME280;18782;48.984;8.548;2023-06-22T04:26:21;99835.25;;;21.03;95.78
32298;BME280;18782;48.984;8.548;2023-06-22T04:28:49;99836.94;;;21.09;96.03
32298;BME280;18782;48.984;8.548;2023-06-22T04:31:21;99835.94;;;21.15;95.49
32298;BME280;18782;48.984;8.548;2023-06-22T04:34:00;99834.09;;;21.20;94.36
32298;BME280;18782;48.984;8.548;2023-06-22T04:36:34;99838.28;;;21.30;95.01
32298;BME280;18782;48.984;8.548;2023-06-22T04:39:05;99842.53;;;21.34;93.82
32298;BME280;18782;48.984;8.548;2023-06-22T04:41:33;99841.53;;;21.40;93.68
32298;BME280;18782;48.984;8.548;2023-06-22T04:44:09;99837.91;;;21.45;93.62
32298;BME280;18782;48.984;8.548;2023-06-22T04:46:37;99834.38;;;21.48;92.92
32298;BME280;18782;48.984;8.548;2023-06-22T04:49:07;99833.38;;;21.53;93.02
32298;BME280;18782;48.984;8.548;2023-06-22T04:51:38;99836.75;;;21.58;92.59
32298;BME280;18782;48.984;8.548;2023-06-22T04:54:07;99830.56;;;21.62;92.23
32298;BME280;18782;48.984;8.548;2023-06-22T04:56:35;99830.38;;;21.72;92.17
32298;BME280;18782;48.984;8.548;2023-06-22T04:59:03;99823.22;;;21.78;91.42
32298;BME280;18782;48.984;8.548;2023-06-22T05:01:31;99818.69;;;21.85;91.76
32298;BME280;18782;48.984;8.548;2023-06-22T05:03:58;99823.88;;;21.88;91.32
32298;BME280;18782;48.984;8.548;2023-06-22T05:06:29;99819.50;;;21.88;90.89
32298;BME280;18782;48.984;8.548;2023-06-22T05:08:57;99817.63;;;21.92;90.92
32298;BME280;18782;48.984;8.548;2023-06-22T05:11:25;99814.88;;;21.98;89.83
32298;BME280;18782;48.984;8.548;2023-06-22T05:13:53;99818.31;;;22.00;90.63
32298;BME280;18782;48.984;8.548;2023-06-22T05:16:21;99810.41;;;22.03;90.46
32298;BME280;18782;48.984;8.548;2023-06-22T05:18:54;99807.56;;;22.12;90.12
32298;BME280;18782;48.984;8.548;2023-06-22T05:21:24;99799.59;;;22.17;90.64
32298;BME280;18782;48.984;8.548;2023-06-22T05:23:53;99795.94;;;22.24;90.85
32298;BME280;18782;48.984;8.548;2023-06-22T05:26:22;99803.75;;;22.26;90.48
32298;BME280;18782;48.984;8.548;2023-06-22T05:28:49;99797.47;;;22.31;90.22
32298;BME280;18782;48.984;8.548;2023-06-22T05:31:35;99799.06;;;22.37;90.12
32298;BME280;18782;48.984;8.548;2023-06-22T05:34:02;99798.75;;;22.49;89.37
32298;BME280;18782;48.984;8.548;2023-06-22T05:36:30;99797.75;;;22.53;89.51
32298;BME280;18782;48.984;8.548;2023-06-22T05:38:59;99800.09;;;22.64;89.25
32298;BME280;18782;48.984;8.548;2023-06-22T05:41:27;99797.41;;;22.65;89.12
32298;BME280;18782;48.984;8.548;2023-06-22T05:43:54;99802.59;;;22.69;89.00
32298;BME280;18782;48.984;8.548;2023-06-22T05:46:22;99803.22;;;22.78;88.93
32298;BME280;18782;48.984;8.548;2023-06-22T05:48:50;99798.75;;;22.82;89.07
32298;BME280;18782;48.984;8.548;2023-06-22T05:51:18;99789.84;;;22.86;88.27
32298;BME280;18782;48.984;8.548;2023-06-22T05:53:45;99795.22;;;22.83;87.31
32298;BME280;18782;48.984;8.548;2023-06-22T05:56:17;99791.59;;;22.87;88.15
32298;BME280;18782;48.984;8.548;2023-06-22T05:58:45;99800.25;;;22.90;86.79
32298;BME280;18782;48.984;8.548;2023-06-22T06:01:13;99802.03;;;22.90;85.30
32298;BME280;18782;48.984;8.548;2023-06-22T06:03:42;99801.13;;;22.91;86.81
32298;BME280;18782;48.984;8.548;2023-06-22T06:06:11;99802.03;;;22.90;87.74
32298;BME280;18782;48.984;8.548;2023-06-22T06:08:38;99798.41;;;22.94;85.82
32298;BME280;18782;48.984;8.548;2023-06-22T06:11:06;99791.28;;;22.99;87.87
32298;BME280;18782;48.984;8.548;2023-06-22T06:13:35;99785.84;;;23.05;85.85
32298;BME280;18782;48.984;8.548;2023-06-22T06:16:03;99806.78;;;23.08;86.01
32298;BME280;18782;48.984;8.548;2023-06-22T06:18:30;99801.38;;;23.13;84.30
32298;BME280;18782;48.984;8.548;2023-06-22T06:20:58;99801.22;;;23.17;84.61
32298;BME280;18782;48.984;8.548;2023-06-22T06:23:26;99804.50;;;23.26;82.75
32298;BME280;18782;48.984;8.548;2023-06-22T06:25:53;99802.59;;;23.31;84.57
32298;BME280;18782;48.984;8.548;2023-06-22T06:28:21;99802.66;;;23.29;83.11
32298;BME280;18782;48.984;8.548;2023-06-22T06:30:50;99798.78;;;23.41;84.28
32298;BME280;18782;48.984;8.548;2023-06-22T06:33:19;99790.81;;;23.44;83.83
32298;BME280;18782;48.984;8.548;2023-06-22T06:35:50;99780.13;;;23.50;84.17
32298;BME280;18782;48.984;8.548;2023-06-22T06:38:18;99772.03;;;23.56;82.12
32298;BME280;18782;48.984;8.548;2023-06-22T06:40:45;99780.47;;;23.67;81.11
32298;BME280;18782;48.984;8.548;2023-06-22T06:43:15;99769.88;;;23.71;82.27
32298;BME280;18782;48.984;8.548;2023-06-22T06:45:44;99764.50;;;23.74;81.17
32298;BME280;18782;48.984;8.548;2023-06-22T06:48:13;99765.16;;;23.80;82.25
32298;BME280;18782;48.984;8.548;2023-06-22T06:50:40;99756.38;;;23.81;79.84
32298;BME280;18782;48.984;8.548;2023-06-22T06:53:10;99746.53;;;23.88;80.48
32298;BME280;18782;48.984;8.548;2023-06-22T06:55:38;99754.31;;;23.91;79.91
32298;BME280;18782;48.984;8.548;2023-06-22T06:58:06;99747.81;;;24.01;80.23
32298;BME280;18782;48.984;8.548;2023-06-22T07:00:34;99746.81;;;24.05;78.60
32298;BME280;18782;48.984;8.548;2023-06-22T07:03:03;99754.38;;;24.14;80.01
32298;BME280;18782;48.984;8.548;2023-06-22T07:05:32;99748.81;;;24.24;79.61
32298;BME280;18782;48.984;8.548;2023-06-22T07:08:00;99762.53;;;24.32;77.41
32298;BME280;18782;48.984;8.548;2023-06-22T07:10:28;99753.44;;;24.42;76.80
32298;BME280;18782;48.984;8.548;2023-06-22T07:12:56;99740.91;;;24.50;76.81
32298;BME280;18782;48.984;8.548;2023-06-22T07:15:24;99751.28;;;24.53;75.25
32298;BME280;18782;48.984;8.548;2023-06-22T07:17:52;99744.22;;;24.55;76.43
32298;BME280;18782;48.984;8.548;2023-06-22T07:20:19;99735.41;;;24.56;74.91
32298;BME280;18782;48.984;8.548;2023-06-22T07:22:48;99728.31;;;24.58;75.22
32298;BME280;18782;48.984;8.548;2023-06-22T07:25:16;99727.34;;;24.61;75.31
32298;BME280;18782;48.984;8.548;2023-06-22T07:27:45;99733.00;;;24.73;75.60
32298;BME280;18782;48.984;8.548;2023-06-22T07:30:13;99727.63;;;24.77;74.65
32298;BME280;18782;48.984;8.548;2023-06-22T07:32:41;99725.47;;;24.88;75.49
32298;BME280;18782;48.984;8.548;2023-06-22T07:35:09;99727.84;;;24.94;74.88
32298;BME280;18782;48.984;8.548;2023-06-22T07:37:37;99715.97;;;25.07;73.43
32298;BME280;18782;48.984;8.548;2023-06-22T07:40:07;99703.50;;;25.12;72.97
32298;BME280;18782;48.984;8.548;2023-06-22T07:42:35;99708.16;;;25.28;71.86
32298;BME280;18782;48.984;8.548;2023-06-22T07:45:04;99713.19;;;25.34;70.23
32298;BME280;18782;48.984;8.548;2023-06-22T07:47:34;99717.16;;;25.44;70.51
32298;BME280;18782;48.984;8.548;2023-06-22T07:50:03;99707.28;;;25.49;72.20
32298;BME280;18782;48.984;8.548;2023-06-22T07:52:31;99707.63;;;25.62;72.75
32298;BME280;18782;48.984;8.548;2023-06-22T07:54:59;99701.50;;;25.61;69.56
32298;BME280;18782;48.984;8.548;2023-06-22T07:57:28;99707.91;;;25.77;69.79
32298;BME280;18782;48.984;8.548;2023-06-22T08:00:00;99717.81;;;25.93;71.55
32298;BME280;18782;48.984;8.548;2023-06-22T08:02:38;99725.88;;;26.10;69.34
32298;BME280;18782;48.984;8.548;2023-06-22T08:05:06;99722.78;;;26.21;68.84
32298;BME280;18782;48.984;8.548;2023-06-22T08:07:46;99721.66;;;26.26;68.60
32298;BME280;18782;48.984;8.548;2023-06-22T08:10:14;99723.06;;;26.34;67.09
32298;BME280;18782;48.984;8.548;2023-06-22T08:12:43;99716.44;;;26.45;67.81
32298;BME280;18782;48.984;8.548;2023-06-22T08:15:11;99723.22;;;26.51;67.89
32298;BME280;18782;48.984;8.548;2023-06-22T08:17:39;99722.81;;;26.60;67.47
32298;BME280;18782;48.984;8.548;2023-06-22T08:20:08;99736.47;;;26.70;66.85
32298;BME280;18782;48.984;8.548;2023-06-22T08:22:38;99746.28;;;26.66;64.53
32298;BME280;18782;48.984;8.548;2023-06-22T08:25:10;99754.25;;;26.85;65.46
32298;BME280;18782;48.984;8.548;2023-06-22T08:27:39;99766.59;;;27.03;64.47
32298;BME280;18782;48.984;8.548;2023-06-22T08:30:09;99753.66;;;27.18;64.53
32298;BME280;18782;48.984;8.548;2023-06-22T08:32:37;99773.34;;;27.29;65.21
32298;BME280;18782;48.984;8.548;2023-06-22T08:35:06;99787.41;;;27.30;61.71
32298;BME280;18782;48.984;8.548;2023-06-22T08:37:34;99801.84;;;27.42;62.44
32298;BME280;18782;48.984;8.548;2023-06-22T08:40:04;99797.34;;;27.44;63.62
32298;BME280;18782;48.984;8.548;2023-06-22T08:42:34;99787.63;;;27.44;63.24
32298;BME280;18782;48.984;8.548;2023-06-22T08:45:02;99758.66;;;27.60;63.83
32298;BME280;18782;48.984;8.548;2023-06-22T08:47:31;99747.44;;;27.74;63.99
32298;BME280;18782;48.984;8.548;2023-06-22T08:49:59;99726.69;;;27.83;63.92
32298;BME280;18782;48.984;8.548;2023-06-22T08:52:31;99708.16;;;28.01;63.04
32298;BME280;18782;48.984;8.548;2023-06-22T08:54:59;99693.69;;;28.25;62.50
32298;BME280;18782;48.984;8.548;2023-06-22T08:57:27;99691.91;;;28.59;60.65
32298;BME280;18782;48.984;8.548;2023-06-22T08:59:56;99683.81;;;28.78;60.82
32298;BME280;18782;48.984;8.548;2023-06-22T09:02:25;99684.13;;;29.05;60.30
32298;BME280;18782;48.984;8.548;2023-06-22T09:05:02;99680.09;;;29.29;59.91
32298;BME280;18782;48.984;8.548;2023-06-22T09:07:30;99679.06;;;29.32;57.80
32298;BME280;18782;48.984;8.548;2023-06-22T09:09:58;99699.41;;;29.31;57.73
32298;BME280;18782;48.984;8.548;2023-06-22T09:12:29;99706.94;;;29.23;57.92
32298;BME280;18782;48.984;8.548;2023-06-22T09:14:57;99706.75;;;29.26;58.79
32298;BME280;18782;48.984;8.548;2023-06-22T09:17:26;99705.56;;;29.16;57.98
32298;BME280;18782;48.984;8.548;2023-06-22T09:19:54;99717.53;;;29.23;59.43
32298;BME280;18782;48.984;8.548;2023-06-22T09:22:23;99711.22;;;29.26;59.59
32298;BME280;18782;48.984;8.548;2023-06-22T09:24:55;99708.47;;;29.27;58.72
32298;BME280;18782;48.984;8.548;2023-06-22T09:27:23;99699.41;;;29.31;59.22
32298;BME280;18782;48.984;8.548;2023-06-22T09:29:51;99692.22;;;29.33;57.64
32298;BME280;18782;48.984;8.548;2023-06-22T09:32:18;99697.00;;;29.43;56.42
32298;BME280;18782;48.984;8.548;2023-06-22T09:34:46;99689.75;;;29.30;57.93
32298;BME280;18782;48.984;8.548;2023-06-22T09:37:13;99687.75;;;29.50;57.33
32298;BME280;18782;48.984;8.548;2023-06-22T09:39:42;99683.09;;;29.69;56.69
32298;BME280;18782;48.984;8.548;2023-06-22T09:42:10;99678.06;;;29.95;57.49
32298;BME280;18782;48.984;8.548;2023-06-22T09:44:39;99672.34;;;30.17;56.91
32298;BME280;18782;48.984;8.548;2023-06-22T09:47:07;99668.28;;;30.39;54.67
32298;BME280;18782;48.984;8.548;2023-06-22T09:49:35;99659.94;;;30.60;55.35
32298;BME280;18782;48.984;8.548;2023-06-22T09:52:14;99651.19;;;30.86;54.51
32298;BME280;18782;48.984;8.548;2023-06-22T09:54:43;99648.47;;;31.01;53.85
32298;BME280;18782;48.984;8.548;2023-06-22T09:57:11;99632.91;;;31.09;53.28
32298;BME280;18782;48.984;8.548;2023-06-22T09:59:39;99626.75;;;31.35;52.90
32298;BME280;18782;48.984;8.548;2023-06-22T10:02:07;99617.44;;;31.68;52.32
32298;BME280;18782;48.984;8.548;2023-06-22T10:04:35;99613.59;;;31.72;51.81
32298;BME280;18782;48.984;8.548;2023-06-22T10:07:04;99618.41;;;31.67;51.21
32298;BME280;18782;48.984;8.548;2023-06-22T10:09:32;99623.84;;;31.65;51.48
32298;BME280;18782;48.984;8.548;2023-06-22T10:12:01;99617.97;;;31.60;52.07
32298;BME280;18782;48.984;8.548;2023-06-22T10:14:28;99621.47;;;31.61;51.65
32298;BME280;18782;48.984;8.548;2023-06-22T10:16:56;99622.03;;;31.66;52.07
32298;BME280;18782;48.984;8.548;2023-06-22T10:19:25;99623.22;;;31.75;52.03
32298;BME280;18782;48.984;8.548;2023-06-22T10:21:53;99621.44;;;31.88;51.20
32298;BME280;18782;48.984;8.548;2023-06-22T10:24:21;99613.66;;;32.10;51.21
32298;BME280;18782;48.984;8.548;2023-06-22T10:26:49;99629.72;;;32.34;51.25
32298;BME280;18782;48.984;8.548;2023-06-22T10:29:18;99617.94;;;32.38;48.73
32298;BME280;18782;48.984;8.548;2023-06-22T10:31:46;99612.88;;;32.46;49.63
32298;BME280;18782;48.984;8.548;2023-06-22T10:34:13;99616.84;;;32.54;50.11
32298;BME280;18782;48.984;8.548;2023-06-22T10:36:41;99610.00;;;32.50;49.11
32298;BME280;18782;48.984;8.548;2023-06-22T10:39:09;99616.19;;;32.63;48.26
32298;BME280;18782;48.984;8.548;2023-06-22T10:41:36;99612.31;;;32.67;48.64
32298;BME280;18782;48.984;8.548;2023-06-22T10:44:04;99604.25;;;32.56;48.68
32298;BME280;18782;48.984;8.548;2023-06-22T10:46:33;99600.41;;;32.60;49.69
32298;BME280;18782;48.984;8.548;2023-06-22T10:49:00;99603.78;;;32.62;50.41
32298;BME280;18782;48.984;8.548;2023-06-22T10:51:28;99608.47;;;32.71;49.57
32298;BME280;18782;48.984;8.548;2023-06-22T10:53:57;99602.91;;;32.74;49.58
32298;BME280;18782;48.984;8.548;2023-06-22T10:56:25;99609.38;;;32.59;48.75
32298;BME280;18782;48.984;8.548;2023-06-22T10:58:53;99609.38;;;32.59;49.73
32298;BME280;18782;48.984;8.548;2023-06-22T11:01:20;99612.09;;;32.70;48.64
32298;BME280;18782;48.984;8.548;2023-06-22T11:04:03;99613.84;;;32.82;49.70
32298;BME280;18782;48.984;8.548;2023-06-22T11:06:31;99616.53;;;32.82;48.90
32298;BME280;18782;48.984;8.548;2023-06-22T11:08:59;99610.72;;;33.01;48.62
32298;BME280;18782;48.984;8.548;2023-06-22T11:11:30;99614.63;;;33.08;46.82
32298;BME280;18782;48.984;8.548;2023-06-22T11:13:57;99605.56;;;33.11;46.87
32298;BME280;18782;48.984;8.548;2023-06-22T11:16:25;99614.31;;;33.13;47.55
32298;BME280;18782;48.984;8.548;2023-06-22T11:18:53;99614.50;;;33.10;48.29
32298;BME280;18782;48.984;8.548;2023-06-22T11:21:22;99605.00;;;33.18;48.39
32298;BME280;18782;48.984;8.548;2023-06-22T11:23:50;99604.53;;;33.48;47.63
32298;BME280;18782;48.984;8.548;2023-06-22T11:26:18;99587.13;;;33.78;46.37
32298;BME280;18782;48.984;8.548;2023-06-22T11:28:47;99588.72;;;33.81;46.24
32298;BME280;18782;48.984;8.548;2023-06-22T11:31:15;99577.03;;;33.70;44.83
32298;BME280;18782;48.984;8.548;2023-06-22T11:33:52;99582.56;;;33.45;45.19
32298;BME280;18782;48.984;8.548;2023-06-22T11:36:19;99575.72;;;33.41;45.60
32298;BME280;18782;48.984;8.548;2023-06-22T11:38:48;99578.06;;;33.45;45.99
32298;BME280;18782;48.984;8.548;2023-06-22T11:41:16;99573.19;;;33.39;46.20
32298;BME280;18782;48.984;8.548;2023-06-22T11:43:44;99577.75;;;33.26;46.00
32298;BME280;18782;48.984;8.548;2023-06-22T11:46:12;99583.28;;;33.12;45.68
32298;BME280;18782;48.984;8.548;2023-06-22T11:48:39;99584.63;;;32.93;46.33
32298;BME280;18782;48.984;8.548;2023-06-22T11:51:07;99575.25;;;32.64;47.40
32298;BME280;18782;48.984;8.548;2023-06-22T11:53:35;99583.75;;;32.69;48.58
32298;BME280;18782;48.984;8.548;2023-06-22T11:56:04;99585.44;;;32.70;48.58
32298;BME280;18782;48.984;8.548;2023-06-22T11:58:34;99596.88;;;32.59;47.64
32298;BME280;18782;48.984;8.548;2023-06-22T12:01:01;99607.66;;;32.58;47.65
32298;BME280;18782;48.984;8.548;2023-06-22T12:03:29;99606.53;;;32.73;47.73
32298;BME280;18782;48.984;8.548;2023-06-22T12:05:57;99596.25;;;32.92;47.08
32298;BME280;18782;48.984;8.548;2023-06-22T12:08:25;99604.72;;;33.10;48.66
32298;BME280;18782;48.984;8.548;2023-06-22T12:10:53;99605.88;;;33.30;47.49
32298;BME280;18782;48.984;8.548;2023-06-22T12:13:22;99596.31;;;33.28;47.51
32298;BME280;18782;48.984;8.548;2023-06-22T12:15:50;99603.31;;;33.41;47.79
32298;BME280;18782;48.984;8.548;2023-06-22T12:18:19;99612.09;;;33.66;48.68
32298;BME280;18782;48.984;8.548;2023-06-22T12:20:48;99606.59;;;34.03;47.53
32298;BME280;18782;48.984;8.548;2023-06-22T12:23:16;99618.03;;;34.27;45.74
32298;BME280;18782;48.984;8.548;2023-06-22T12:25:44;99624.84;;;34.53;44.12
32298;BME280;18782;48.984;8.548;2023-06-22T12:28:12;99627.72;;;34.84;43.32
32298;BME280;18782;48.984;8.548;2023-06-22T12:30:41;99626.50;;;34.99;44.26
32298;BME280;18782;48.984;8.548;2023-06-22T12:33:09;99622.88;;;34.78;42.75
32298;BME280;18782;48.984;8.548;2023-06-22T12:35:36;99619.22;;;34.79;44.04
32298;BME280;18782;48.984;8.548;2023-06-22T12:38:04;99603.91;;;34.70;44.52
32298;BME280;18782;48.984;8.548;2023-06-22T12:40:33;99598.09;;;34.65;45.46
32298;BME280;18782;48.984;8.548;2023-06-22T12:43:01;99592.75;;;34.65;45.19
32298;BME280;18782;48.984;8.548;2023-06-22T12:45:29;99605.50;;;34.39;45.81
32298;BME280;18782;48.984;8.548;2023-06-22T12:48:01;99617.19;;;34.15;45.38
32298;BME280;18782;48.984;8.548;2023-06-22T12:50:28;99620.22;;;33.99;45.92
32298;BME280;18782;48.984;8.548;2023-06-22T12:52:57;99623.06;;;33.85;45.39
32298;BME280;18782;48.984;8.548;2023-06-22T12:55:24;99616.25;;;33.81;44.66
32298;BME280;18782;48.984;8.548;2023-06-22T12:57:52;99610.75;;;34.18;45.71
32298;BME280;18782;48.984;8.548;2023-06-22T13:00:20;99599.53;;;34.80;44.47
32298;BME280;18782;48.984;8.548;2023-06-22T13:02:48;99605.81;;;35.45;44.11
32298;BME280;18782;48.984;8.548;2023-06-22T13:05:17;99609.72;;;35.83;41.97
32298;BME280;18782;48.984;8.548;2023-06-22T13:07:45;99603.91;;;35.98;42.12
32298;BME280;18782;48.984;8.548;2023-06-22T13:10:12;99601.28;;;35.87;40.84
32298;BME280;18782;48.984;8.548;2023-06-22T13:12:40;99591.66;;;36.36;40.45